Terminal Aerodrome Forecast
Issued by NWS

Home | Current Version | Previous Version | Text Only | Print | Product List | Glossary On
Versions: 1 2 3 4 5 6 7 8 9 10 11 12 13 14 15 16 17 18 19 20
000
FTUS44 KCRP 031131
TAFALI
TAF
KALI 031131Z 0312/0412 VRB03KT 3SM BR FEW008
      TEMPO 0312/0313 1SM BR SCT008
     FM031400 17005KT P6SM SCT025
     FM032100 12014KT P6SM VCTS SCT050CB BKN250
     FM040200 15007KT P6SM FEW030 BKN150
     FM040900 VRB03KT 3SM BR FEW015 SCT200=

USA.gov is the U.S. government's official web portal to all federal, state and local government web resources and services.